DABS

Cheikh Larbi Tébessi Airport

Tébessi, Algeria
METAR DABS 151900Z 24002KT CAVOK 08/M07 Q1026
Observed Flight Rules
Feb-15 @ 19:00 UTC (11 minutes ago) Visual Flight Rules
Wind Visibility Clouds
240° at 2 knots 10,000+ meters
  • Clear skies
Temperatures Readings
Current 8°C / 46°F
Dewpoint -7°C / 19°F
Humidity 34%
Altimeter 30.3" Hg
Pressure 1025.92 hPa
Elevation 813
METAR DABS 151900Z 24002KT CAVOK 08/M07 Q1026
Observed Flight Rules
Feb-15 @ 19:00 UTC
(11 minutes ago)
VFR
Wind Visibility
240° at 2 knots 10,000+ meters
Clouds
  • Clear skies
Temperature Dewpoint
8°C / 46°F -7°C / 19°F
Humidity Altimeter Pressure
34% 30.3" Hg 1025.92 hPa